Station info - map view · info · telemetry · weather · raw · status · beacons · messages · bulletins · browse · moving · my account
Callsign, ship name or locator: Clear       
It is possible to search using wildcards (*?) after a prefix. Example: OH*
APRS station SM2FXT-9 - show graphs
Map loading...
Comment: 13.7V 05C On Route/sm2fxt@gmail.com
Location: 64°44.52' N 20°56.86' E - locator KP04LR38RB - show map - static map
0.6 miles South bearing 194° from Skellefteå, Skellefteå Kommun, Västerbotten, Sweden [?]
1.5 miles Northeast bearing 41° from Viken, Skellefteå Kommun, Västerbotten, Sweden
66.4 miles North bearing 18° from Umeå, Umeå Kommun, Västerbotten, Sweden
67.9 miles Southwest bearing 212° from Luleå, Luleå Kommun, Norrbotten, Sweden
Last position: 2017-11-17 09:52:27 EST (2d 11h29m ago)
2017-11-17 15:52:27 CET local time at Skellefteå, Sweden [?]
Altitude: 57 ft
Course: 328°
Speed: 6 MPH
Last telemetry: 2008-03-03 08:15:36 EST (3548d 13h6m ago) – show telemetry
Ch 1: 146, Ch 2: 234, Ch 3: 255, Ch 4: 0, Ch 5: 13
 1     2     3     4     5     6     7     8 
Device: Argent Data Systems: OpenTracker (tracker)
Last path: SM2FXT-9>APOTC1 via WIDE1-1,WIDE2-1,qAR,SM2FXT (good)
Positions stored: 183519
Packet rate: 31 seconds between packets on average during 565 seconds.
Other SSIDs: SM2FXT SM2FXT-5
Stations near current position of SM2FXT-9 - show more
callsign distance last heard - EST      callsign distance last heard - EST
SM2FXT147.3 yards 289°2017-11-19 21:07:12 SM2UQK-71.2 miles 20°2017-11-11 03:45:36
SK2RFV B2.2 miles 4°2017-11-19 21:04:38 SK2RFV-B2.2 miles 4°2017-11-19 21:04:48
SK2AU/R2.2 miles 4°2017-11-19 21:19:59 002655020 SE2.2 miles 4°2017-11-07 20:34:41
SK2AU2.5 miles 168°2017-11-19 21:13:29 ESNS8.5 miles 152°2017-11-19 02:55:00
BAUS9.7 miles 116°2017-11-04 22:54:03 PILOT 791 SE11.0 miles 114°2017-11-04 18:59:26
SM2WMV-118.0 miles 215°2017-11-19 21:16:59 SM2XJP-518.0 miles 213°2017-11-10 08:17:17
SM2X-918.0 miles 213°2017-11-16 14:13:05 SM2X-1218.0 miles 213°2017-11-14 05:52:40
EW819218.8 miles 25°2017-10-26 13:12:05
Stations which heard SM2FXT-9 directly on radio –
callsign pkts first heard - EST last heard longest (tx => rx) longest at - EST
SK3BG-1 4 2017-11-05 08:25:13 2017-11-05 08:29:13 JP82QK > JP82PJ 5.3 miles 198° 2017-11-05 08:29:13
SM2FXT 193 2017-11-05 14:04:46 2017-11-17 09:52:05 KP04NP > KP04LR 8.3 miles 319° 2017-11-05 14:04:46
SK3BR 17 2017-11-05 05:45:40 2017-11-05 06:57:41 JP80MT > JP81IE 29.9 miles 335° 2017-11-05 05:45:40
SM2VTS-1 1 2017-11-05 12:51:38 2017-11-05 12:51:38 KP03EU > KP03DV 3.4 miles 324° 2017-11-05 12:51:38
SM0TUI-3 1 2017-11-05 04:02:42 2017-11-05 04:02:42 JO89XH > JO99BH 4.0 miles 112° 2017-11-05 04:02:42
SK2AT-2 34 2017-11-05 10:36:46 2017-11-05 13:23:28 KP04LE > JP93VU 42.7 miles 237° 2017-11-05 13:23:28
SK3BG-2 1 2017-11-05 08:25:19 2017-11-05 08:25:19 JP82QJ > JP82OJ 4.5 miles 265° 2017-11-05 08:25:19
SK3GA-2 7 2017-11-05 07:48:36 2017-11-05 08:27:48 JP82QK > JP82IA 34.2 miles 215° 2017-11-05 08:27:48
SL3ZB-2 8 2017-11-05 08:42:56 2017-11-05 09:19:33 JP92AU > JP82XO 18.2 miles 188° 2017-11-05 09:19:33
SM5RVH-1 1 2017-11-05 03:06:28 2017-11-05 03:06:28 JO88LS > JO88LQ 3.2 miles 184° 2017-11-05 03:06:28
SM5RVH-2 10 2017-11-05 02:54:26 2017-11-05 03:18:38 JO88HS > JO88MS 14.8 miles 88° 2017-11-05 02:54:26
SK0MM-2 2 2017-11-05 04:00:48 2017-11-05 04:02:33 JO89XH > JO99FH 17.3 miles 89° 2017-11-05 04:02:33
SK0BJ-10 15 2017-11-05 03:51:05 2017-11-05 04:15:02 JO89XK > JO89XF 14.9 miles 177° 2017-11-05 04:15:02
SM5OEM-1 6 2017-11-05 02:34:39 2017-11-05 02:43:48 JO88BO > JO88BQ 7.2 miles 5° 2017-11-05 02:34:39
SM5OEM-3 5 2017-11-05 03:14:05 2017-11-05 03:35:18 JO88NT > JO89RB 18.2 miles 31° 2017-11-05 03:14:05
SM0RGQ-10 45 2017-11-04 10:18:18 2017-11-05 02:39:15 JO88CP > JO78SN 23.6 miles 258° 2017-11-05 02:39:15
SK3GK-2 6 2017-11-05 05:33:31 2017-11-05 05:42:38 JP80MS > JP80NP 8.3 miles 167° 2017-11-05 05:42:38
SM1NVP-10 1 2017-11-05 03:35:16 2017-11-05 03:35:16 JO89TB > JO88XV 17.0 miles 134° 2017-11-05 03:35:16
SK0SX-2 21 2017-11-05 03:44:57 2017-11-05 04:29:53 JO89WP > JO89XJ 17.3 miles 173° 2017-11-05 04:29:53
SM2WMV-1 1 2017-11-05 13:47:47 2017-11-05 13:47:47 KP04PK > KP04HM 21.1 miles 287° 2017-11-05 13:47:47
SK0TM-10 2 2017-11-05 04:01:21 2017-11-05 04:07:20 JO99AH > JO99BH 4.2 miles 68° 2017-11-05 04:01:21
SK0XW-1 2 2017-11-05 04:21:09 2017-11-05 04:22:40 JO89XM > JO89WN 1.8 miles 347° 2017-11-05 04:21:09

Only position packets which were originated by the station are shown here. The range statistics show some extra long hops, because some digipeaters do not correctly add themselves to the digipeater path. Please check the raw packets.
About this site
This page shows real-time information collected from the Automatic Position Reporting System Internet network (APRS-IS). APRS is used by amateur (ham) radio operators to transmit real-time position information, weather data, telemetry and messages over the radio. A vehicle equipped with a GPS receiver, a VHF transmitter or HF transceiver and a small computer device called a tracker transmits it's location, speed and course in a small data packet, which is then received by a nearby iGate receiving site which forwards the packet on the Internet. Systems connected to the Internet can send information on the APRS-IS without a radio transmitter, or collect and display information transmitted anywhere in the world.
FAQ · Blog · Discussion group · Linking to aprs.fi · AIS sites · Service status · Database statistics · Advertising on aprs.fi · Technical details · API · Change log · Planned changes · Credits and thanks · Terms Of Service · iPhone/iPad APRS